createdAt,value
2018-05-09T00:00:52.852Z,4.10
2018-05-09T00:06:57.629Z,4.00
2018-05-09T00:13:01.989Z,3.23
2018-05-09T00:19:06.342Z,3.90
2018-05-09T00:25:11.152Z,4.37
2018-05-09T00:31:15.496Z,4.20
2018-05-09T00:37:20.903Z,3.93
2018-05-09T00:43:25.301Z,3.60
2018-05-09T00:49:29.656Z,3.70
2018-05-09T00:55:33.993Z,4.03
2018-05-09T01:01:38.415Z,3.60
2018-05-09T01:07:42.816Z,3.43
2018-05-09T01:13:47.343Z,3.57
2018-05-09T01:19:52.759Z,3.97
2018-05-09T01:25:57.205Z,3.50
2018-05-09T01:32:01.565Z,4.60
2018-05-09T01:38:05.941Z,4.10
2018-05-09T01:44:11.239Z,3.73
2018-05-09T01:50:15.706Z,3.87
2018-05-09T01:56:21.788Z,3.90
2018-05-09T02:02:26.397Z,3.50
2018-05-09T02:08:30.757Z,3.90
2018-05-09T02:14:35.093Z,3.50
2018-05-09T02:20:39.514Z,3.67
2018-05-09T02:26:43.865Z,4.07
2018-05-09T02:32:48.390Z,4.23
2018-05-09T02:38:52.718Z,4.20
2018-05-09T02:44:57.076Z,4.70
2018-05-09T02:51:01.429Z,3.97
2018-05-09T02:57:06.559Z,4.60
2018-05-09T03:03:10.915Z,4.30
2018-05-09T03:09:15.291Z,3.70
2018-05-09T03:15:19.639Z,3.50
2018-05-09T03:21:24.205Z,3.83
2018-05-09T03:27:28.674Z,3.93
2018-05-09T03:33:33.039Z,4.00
2018-05-09T03:39:37.383Z,3.80
2018-05-09T03:45:41.720Z,4.50
2018-05-09T03:51:46.861Z,3.80
2018-05-09T03:57:51.810Z,4.10
2018-05-09T04:04:14.041Z,4.83
2018-05-09T04:10:18.396Z,5.00
2018-05-09T04:16:28.909Z,4.73
2018-05-09T04:22:33.254Z,4.80
2018-05-09T04:28:37.610Z,5.63
2018-05-09T04:34:41.963Z,6.17
2018-05-09T04:40:46.325Z,4.80
2018-05-09T04:46:51.541Z,4.70
2018-05-09T04:52:55.958Z,5.27
2018-05-09T04:59:00.392Z,4.80
2018-05-09T05:05:04.743Z,4.40
2018-05-09T05:11:09.189Z,5.50
2018-05-09T05:17:14.341Z,5.90
2018-05-09T05:23:18.792Z,6.00
2018-05-09T05:29:23.801Z,5.17
2018-05-09T05:35:28.170Z,5.60
2018-05-09T05:41:32.644Z,5.30
2018-05-09T05:47:37.031Z,5.53
2018-05-09T05:53:41.453Z,6.20
2018-05-09T05:59:46.565Z,5.50
2018-05-09T06:05:52.120Z,4.83
2018-05-09T06:11:56.544Z,4.93
2018-05-09T06:18:00.899Z,6.60
2018-05-09T06:24:06.142Z,5.90
2018-05-09T06:30:10.497Z,5.57
2018-05-09T06:36:14.849Z,5.30
2018-05-09T06:42:20.329Z,5.07
2018-05-09T06:48:25.198Z,6.33
2018-05-09T06:54:29.561Z,5.87
2018-05-09T07:00:33.919Z,5.60
2018-05-09T07:06:38.486Z,5.17
2018-05-09T07:12:42.794Z,5.60
2018-05-09T07:18:47.842Z,5.17
2018-05-09T07:24:52.223Z,4.90
2018-05-09T07:30:56.576Z,4.10
2018-05-09T07:37:01.772Z,3.80
2018-05-09T07:43:06.879Z,4.67
2018-05-09T07:49:11.223Z,4.17
2018-05-09T07:55:16.382Z,4.60
2018-05-09T08:01:20.861Z,4.53
2018-05-09T08:07:25.321Z,4.73
2018-05-09T08:13:29.663Z,5.30
2018-05-09T08:19:34.025Z,5.20
2018-05-09T08:25:38.393Z,4.50
2018-05-09T08:31:42.752Z,4.10
2018-05-09T08:37:47.088Z,4.57
2018-05-09T08:43:51.978Z,4.17
2018-05-09T08:49:56.333Z,4.90
2018-05-09T08:56:00.665Z,4.63
2018-05-09T09:02:05.013Z,5.53
2018-05-09T09:08:09.363Z,4.73
2018-05-09T09:14:13.763Z,4.77
2018-05-09T09:20:18.113Z,3.67
2018-05-09T09:26:24.291Z,4.20
2018-05-09T09:32:29.469Z,4.10
2018-05-09T09:38:33.833Z,3.77
2018-05-09T09:44:38.181Z,4.30
2018-05-09T09:50:42.606Z,4.10
2018-05-09T09:56:46.895Z,4.53
2018-05-09T10:02:51.406Z,4.40
2018-05-09T10:08:56.000Z,3.67
2018-05-09T10:15:00.347Z,3.87
2018-05-09T10:21:04.685Z,3.90
2018-05-09T10:27:09.030Z,4.60
2018-05-09T10:33:13.390Z,3.97
2018-05-09T10:39:17.850Z,4.70
2018-05-09T10:45:22.273Z,4.10
2018-05-09T10:51:26.620Z,4.13
2018-05-09T10:57:30.962Z,3.80
2018-05-09T11:03:36.071Z,3.90
2018-05-09T11:09:40.422Z,3.47
2018-05-09T11:15:44.854Z,3.60
2018-05-09T11:21:49.190Z,4.30
2018-05-09T11:27:53.587Z,4.30
2018-05-09T11:33:57.922Z,3.60
2018-05-09T11:40:02.270Z,3.23
2018-05-09T11:46:06.634Z,3.37
2018-05-09T11:52:11.105Z,3.37
2018-05-09T11:58:15.555Z,3.27
2018-05-09T12:04:20.076Z,3.67
2018-05-09T12:10:25.468Z,2.90
2018-05-09T12:16:30.888Z,3.00
2018-05-09T12:22:35.379Z,3.33
2018-05-09T12:28:39.856Z,2.53
2018-05-09T12:34:45.001Z,2.10
2018-05-09T12:40:49.507Z,3.07
2018-05-09T12:46:54.166Z,2.90
2018-05-09T12:52:58.519Z,2.90
2018-05-09T12:59:02.960Z,4.80
2018-05-09T13:05:07.346Z,3.47
2018-05-09T13:11:11.805Z,3.23
2018-05-09T13:17:16.927Z,2.93
2018-05-09T13:23:22.623Z,2.50
2018-05-09T13:29:27.041Z,3.90
2018-05-09T13:35:31.392Z,2.97
2018-05-09T13:41:35.762Z,2.67
2018-05-09T13:47:40.206Z,3.30
2018-05-09T13:53:45.483Z,2.30
2018-05-09T13:59:49.952Z,2.50
2018-05-09T14:05:54.316Z,3.43
2018-05-09T14:11:58.674Z,2.67
2018-05-09T14:18:03.042Z,2.53
2018-05-09T14:24:07.435Z,3.30
2018-05-09T14:30:11.792Z,2.77
2018-05-09T14:36:16.166Z,3.27
2018-05-09T14:42:20.571Z,3.30
2018-05-09T14:48:25.151Z,3.00
2018-05-09T14:54:29.566Z,3.30
2018-05-09T15:00:34.665Z,2.80
2018-05-09T15:06:39.099Z,3.00
2018-05-09T15:12:44.247Z,4.33
2018-05-09T15:18:48.622Z,2.60
2018-05-09T15:24:53.394Z,3.33
2018-05-09T15:30:57.741Z,2.67
2018-05-09T15:37:03.000Z,3.10
2018-05-09T15:43:07.435Z,4.60
2018-05-09T15:49:11.785Z,2.80
2018-05-09T15:55:16.150Z,2.60
2018-05-09T16:01:21.019Z,3.07
2018-05-09T16:07:25.493Z,2.43
2018-05-09T16:13:29.879Z,3.50
2018-05-09T16:19:34.242Z,2.97
2018-05-09T16:25:38.623Z,3.20
2018-05-09T16:31:43.005Z,2.60
2018-05-09T16:37:48.167Z,3.13
2018-05-09T16:56:52.541Z,3.20
2018-05-09T17:02:57.697Z,2.83
2018-05-09T17:09:02.085Z,3.20
2018-05-09T17:15:06.483Z,3.07
2018-05-09T17:21:35.388Z,4.57
2018-05-09T17:27:39.783Z,4.07
2018-05-09T17:33:44.235Z,3.97
2018-05-09T17:39:48.639Z,4.20
2018-05-09T17:45:53.809Z,3.37
2018-05-09T17:51:58.196Z,3.60
2018-05-09T17:58:02.561Z,3.63
2018-05-09T18:04:07.134Z,3.77
2018-05-09T18:10:11.378Z,4.07
2018-05-09T18:16:15.797Z,3.47
2018-05-09T18:22:20.256Z,3.90
2018-05-09T18:28:24.921Z,3.60
2018-05-09T18:34:29.293Z,4.50
2018-05-09T18:40:34.492Z,4.77
2018-05-09T18:46:38.912Z,4.60
2018-05-09T18:52:43.358Z,4.50
2018-05-09T18:58:47.720Z,4.27
2018-05-09T19:04:52.425Z,4.80
2018-05-09T19:10:56.816Z,4.70
2018-05-09T19:17:01.208Z,4.17
2018-05-09T19:23:05.605Z,3.90
2018-05-09T19:29:10.721Z,5.20
2018-05-09T19:35:15.106Z,4.23
2018-05-09T19:41:19.468Z,5.10
2018-05-09T19:47:23.897Z,3.77
2018-05-09T19:53:28.264Z,4.00
2018-05-09T19:59:32.621Z,3.93
2018-05-09T20:05:36.988Z,4.53
2018-05-09T20:11:41.454Z,3.47
2018-05-09T20:17:45.789Z,3.47
2018-05-09T20:23:50.247Z,3.97
2018-05-09T20:29:54.774Z,3.50
2018-05-09T20:35:59.881Z,4.30
2018-05-09T20:42:04.349Z,3.93
2018-05-09T20:48:08.681Z,4.57
2018-05-09T20:54:13.033Z,4.30
2018-05-09T21:00:17.393Z,3.60
2018-05-09T21:06:21.731Z,4.30
2018-05-09T21:12:26.081Z,3.63
2018-05-09T21:18:31.228Z,4.60
2018-05-09T21:24:35.602Z,4.10
2018-05-09T21:30:39.948Z,3.93
2018-05-09T21:36:45.286Z,3.90
2018-05-09T21:42:49.660Z,4.40
2018-05-09T21:48:54.096Z,4.83
2018-05-09T21:54:59.200Z,4.83
2018-05-09T22:01:03.539Z,4.17
2018-05-09T22:07:07.904Z,4.13
2018-05-09T22:13:12.282Z,4.43
2018-05-09T22:19:17.407Z,4.43
2018-05-09T22:25:22.612Z,4.53
2018-05-09T22:31:26.980Z,4.13
2018-05-09T22:37:32.105Z,4.70
2018-05-09T22:43:36.452Z,5.17
2018-05-09T22:49:40.817Z,6.13
2018-05-09T22:55:45.509Z,5.13
2018-05-09T23:01:50.117Z,5.20
2018-05-09T23:07:54.589Z,5.60
2018-05-09T23:13:59.722Z,4.93
2018-05-09T23:20:04.081Z,4.87
2018-05-09T23:26:08.522Z,6.10
2018-05-09T23:32:12.877Z,5.53
2018-05-09T23:38:17.222Z,7.37
2018-05-09T23:44:22.153Z,5.77
2018-05-09T23:50:26.503Z,5.10
2018-05-09T23:56:31.643Z,6.10
